sensor_id;sensor_type;location;lat;lon;timestamp;pressure;altitude;pressure_sealevel;temperature;humidity
37852;BME280;23691;52.486;4.650;2023-11-21T00:00:27;101072.19;;;11.93;78.36
37852;BME280;23691;52.486;4.650;2023-11-21T00:03:14;101071.22;;;11.94;78.27
37852;BME280;23691;52.486;4.650;2023-11-21T00:05:42;101073.88;;;11.94;78.37
37852;BME280;23691;52.486;4.650;2023-11-21T00:08:08;101080.91;;;11.95;78.47
37852;BME280;23691;52.486;4.650;2023-11-21T00:10:33;101091.47;;;11.96;78.49
37852;BME280;23691;52.486;4.650;2023-11-21T00:12:58;101084.94;;;11.99;78.66
37852;BME280;23691;52.486;4.650;2023-11-21T00:15:27;101087.44;;;12.00;78.83
37852;BME280;23691;52.486;4.650;2023-11-21T00:17:52;101085.59;;;12.01;79.09
37852;BME280;23691;52.486;4.650;2023-11-21T00:20:17;101093.47;;;12.02;79.25
37852;BME280;23691;52.486;4.650;2023-11-21T00:22:43;101089.13;;;12.01;79.42
37852;BME280;23691;52.486;4.650;2023-11-21T00:25:11;101091.97;;;12.00;79.75
37852;BME280;23691;52.486;4.650;2023-11-21T00:27:37;101082.06;;;12.00;79.83
37852;BME280;23691;52.486;4.650;2023-11-21T00:30:06;101083.78;;;12.01;80.01
37852;BME280;23691;52.486;4.650;2023-11-21T00:32:32;101088.94;;;12.03;79.93
37852;BME280;23691;52.486;4.650;2023-11-21T00:34:57;101084.44;;;12.03;80.11
37852;BME280;23691;52.486;4.650;2023-11-21T00:37:26;101092.16;;;12.07;80.12
37852;BME280;23691;52.486;4.650;2023-11-21T00:39:54;101087.78;;;12.06;80.22
37852;BME280;23691;52.486;4.650;2023-11-21T00:42:19;101077.38;;;12.02;80.33
37852;BME280;23691;52.486;4.650;2023-11-21T00:44:46;101085.59;;;12.01;80.33
37852;BME280;23691;52.486;4.650;2023-11-21T00:47:14;101094.50;;;12.01;80.40
37852;BME280;23691;52.486;4.650;2023-11-21T00:49:42;101091.81;;;12.01;80.38
37852;BME280;23691;52.486;4.650;2023-11-21T00:52:08;101094.50;;;12.01;80.44
37852;BME280;23691;52.486;4.650;2023-11-21T00:54:34;101095.34;;;12.02;80.41
37852;BME280;23691;52.486;4.650;2023-11-21T00:57:02;101104.53;;;12.08;80.36
37852;BME280;23691;52.486;4.650;2023-11-21T00:59:28;101100.34;;;12.13;80.02
37852;BME280;23691;52.486;4.650;2023-11-21T01:01:54;101098.34;;;12.15;79.83
37852;BME280;23691;52.486;4.650;2023-11-21T01:04:19;101113.44;;;12.16;79.91
37852;BME280;23691;52.486;4.650;2023-11-21T01:06:47;101117.09;;;12.15;79.87
37852;BME280;23691;52.486;4.650;2023-11-21T01:09:15;101127.69;;;12.17;79.81
37852;BME280;23691;52.486;4.650;2023-11-21T01:11:43;101119.81;;;11.99;80.06
37852;BME280;23691;52.486;4.650;2023-11-21T01:14:09;101122.31;;;12.00;80.13
37852;BME280;23691;52.486;4.650;2023-11-21T01:16:35;101128.69;;;11.99;80.31
37852;BME280;23691;52.486;4.650;2023-11-21T01:19:00;101130.69;;;11.97;80.24
37852;BME280;23691;52.486;4.650;2023-11-21T01:21:26;101136.06;;;11.97;80.13
37852;BME280;23691;52.486;4.650;2023-11-21T01:23:53;101137.91;;;12.05;80.04
37852;BME280;23691;52.486;4.650;2023-11-21T01:26:18;101140.41;;;12.07;79.76
37852;BME280;23691;52.486;4.650;2023-11-21T01:28:43;101149.97;;;12.09;79.70
37852;BME280;23691;52.486;4.650;2023-11-21T01:31:09;101150.31;;;12.06;79.74
37852;BME280;23691;52.486;4.650;2023-11-21T01:33:34;101150.13;;;11.99;79.92
37852;BME280;23691;52.486;4.650;2023-11-21T01:35:59;101152.13;;;12.06;79.76
37852;BME280;23691;52.486;4.650;2023-11-21T01:38:25;101153.84;;;12.07;79.67
37852;BME280;23691;52.486;4.650;2023-11-21T01:40:50;101158.19;;;12.08;79.82
37852;BME280;23691;52.486;4.650;2023-11-21T01:43:18;101163.53;;;12.08;79.79
37852;BME280;23691;52.486;4.650;2023-11-21T01:45:43;101164.22;;;12.10;79.80
37852;BME280;23691;52.486;4.650;2023-11-21T01:48:10;101160.38;;;12.12;79.64
37852;BME280;23691;52.486;4.650;2023-11-21T01:50:37;101162.03;;;12.13;79.74
37852;BME280;23691;52.486;4.650;2023-11-21T01:53:03;101169.09;;;12.14;79.83
37852;BME280;23691;52.486;4.650;2023-11-21T01:55:30;101161.03;;;12.14;79.78
37852;BME280;23691;52.486;4.650;2023-11-21T01:57:56;101165.38;;;12.15;79.76
37852;BME280;23691;52.486;4.650;2023-11-21T02:00:27;101166.25;;;12.16;79.73
37852;BME280;23691;52.486;4.650;2023-11-21T02:02:55;101164.56;;;12.15;79.87
37852;BME280;23691;52.486;4.650;2023-11-21T02:05:22;101166.25;;;12.16;79.85
37852;BME280;23691;52.486;4.650;2023-11-21T02:07:47;101166.25;;;12.16;79.88
37852;BME280;23691;52.486;4.650;2023-11-21T02:10:13;101168.06;;;12.15;79.88
37852;BME280;23691;52.486;4.650;2023-11-21T02:12:42;101169.91;;;12.15;79.77
37852;BME280;23691;52.486;4.650;2023-11-21T02:15:10;101176.13;;;12.15;79.77
37852;BME280;23691;52.486;4.650;2023-11-21T02:17:43;101176.78;;;12.17;79.81
37852;BME280;23691;52.486;4.650;2023-11-21T02:20:10;101184.50;;;12.20;79.84
37852;BME280;23691;52.486;4.650;2023-11-21T02:22:40;101188.03;;;12.21;80.03
37852;BME280;23691;52.486;4.650;2023-11-21T02:25:06;101181.31;;;12.17;80.11
37852;BME280;23691;52.486;4.650;2023-11-21T02:27:32;101188.69;;;12.15;80.30
37852;BME280;23691;52.486;4.650;2023-11-21T02:29:58;101186.34;;;12.12;80.61
37852;BME280;23691;52.486;4.650;2023-11-21T02:32:24;101181.66;;;12.14;80.76
37852;BME280;23691;52.486;4.650;2023-11-21T02:34:51;101182.84;;;12.19;80.64
37852;BME280;23691;52.486;4.650;2023-11-21T02:37:21;101184.50;;;12.20;80.68
37852;BME280;23691;52.486;4.650;2023-11-21T02:39:46;101198.09;;;12.19;81.14
37852;BME280;23691;52.486;4.650;2023-11-21T02:42:11;101198.44;;;12.24;80.87
37852;BME280;23691;52.486;4.650;2023-11-21T02:44:37;101196.25;;;12.28;80.83
37852;BME280;23691;52.486;4.650;2023-11-21T02:47:02;101195.56;;;12.25;80.93
37852;BME280;23691;52.486;4.650;2023-11-21T02:49:27;101203.59;;;12.25;81.08
37852;BME280;23691;52.486;4.650;2023-11-21T02:51:53;101204.28;;;12.28;81.00
37852;BME280;23691;52.486;4.650;2023-11-21T02:54:19;101208.81;;;12.27;80.98
37852;BME280;23691;52.486;4.650;2023-11-21T02:56:47;101198.91;;;12.28;81.28
37852;BME280;23691;52.486;4.650;2023-11-21T02:59:12;101210.34;;;12.30;81.19
37852;BME280;23691;52.486;4.650;2023-11-21T03:01:37;101208.00;;;12.27;81.34
37852;BME280;23691;52.486;4.650;2023-11-21T03:04:03;101206.28;;;12.25;81.36
37852;BME280;23691;52.486;4.650;2023-11-21T03:06:28;101204.63;;;12.24;81.58
37852;BME280;23691;52.486;4.650;2023-11-21T03:08:54;101202.78;;;12.25;81.62
37852;BME280;23691;52.486;4.650;2023-11-21T03:11:21;101200.09;;;12.25;81.56
37852;BME280;23691;52.486;4.650;2023-11-21T03:13:47;101205.47;;;12.25;81.54
37852;BME280;23691;52.486;4.650;2023-11-21T03:16:12;101202.63;;;12.27;81.55
37852;BME280;23691;52.486;4.650;2023-11-21T03:18:45;101206.31;;;12.17;81.78
37852;BME280;23691;52.486;4.650;2023-11-21T03:21:10;101220.72;;;12.24;81.57
37852;BME280;23691;52.486;4.650;2023-11-21T03:23:36;101223.56;;;12.23;81.59
37852;BME280;23691;52.486;4.650;2023-11-21T03:26:02;101220.03;;;12.22;81.61
37852;BME280;23691;52.486;4.650;2023-11-21T03:28:27;101238.66;;;12.24;81.51
37852;BME280;23691;52.486;4.650;2023-11-21T03:30:53;101233.31;;;12.24;81.43
37852;BME280;23691;52.486;4.650;2023-11-21T03:33:18;101238.81;;;12.22;81.45
37852;BME280;23691;52.486;4.650;2023-11-21T03:35:51;101239.00;;;12.21;81.45
37852;BME280;23691;52.486;4.650;2023-11-21T03:38:18;101242.00;;;12.18;81.54
37852;BME280;23691;52.486;4.650;2023-11-21T03:40:46;101253.06;;;12.15;81.53
37852;BME280;23691;52.486;4.650;2023-11-21T03:43:12;101250.72;;;12.12;81.52
37852;BME280;23691;52.486;4.650;2023-11-21T03:45:38;101253.75;;;12.09;81.36
37852;BME280;23691;52.486;4.650;2023-11-21T03:48:05;101249.84;;;12.03;81.44
37852;BME280;23691;52.486;4.650;2023-11-21T03:50:33;101252.72;;;12.01;81.38
37852;BME280;23691;52.486;4.650;2023-11-21T03:52:58;101261.06;;;11.98;81.40
37852;BME280;23691;52.486;4.650;2023-11-21T03:55:23;101263.59;;;11.92;81.40
37852;BME280;23691;52.486;4.650;2023-11-21T03:57:50;101259.06;;;11.92;81.27
37852;BME280;23691;52.486;4.650;2023-11-21T04:00:16;101261.88;;;11.91;81.07
37852;BME280;23691;52.486;4.650;2023-11-21T04:02:43;101267.09;;;11.92;81.01
37852;BME280;23691;52.486;4.650;2023-11-21T04:05:10;101264.06;;;11.87;80.85
37852;BME280;23691;52.486;4.650;2023-11-21T04:07:35;101274.78;;;11.87;80.89
37852;BME280;23691;52.486;4.650;2023-11-21T04:10:03;101280.44;;;11.84;80.79
37852;BME280;23691;52.486;4.650;2023-11-21T04:12:30;101281.09;;;11.86;80.63
37852;BME280;23691;52.486;4.650;2023-11-21T04:14:57;101282.13;;;11.85;80.56
37852;BME280;23691;52.486;4.650;2023-11-21T04:17:25;101293.69;;;11.86;80.40
37852;BME280;23691;52.486;4.650;2023-11-21T04:19:51;101301.91;;;11.84;80.40
37852;BME280;23691;52.486;4.650;2023-11-21T04:22:16;101303.56;;;11.85;80.35
37852;BME280;23691;52.486;4.650;2023-11-21T04:24:41;101307.56;;;11.81;80.47
37852;BME280;23691;52.486;4.650;2023-11-21T04:27:07;101304.72;;;11.82;80.61
37852;BME280;23691;52.486;4.650;2023-11-21T04:29:33;101313.78;;;11.81;80.54
37852;BME280;23691;52.486;4.650;2023-11-21T04:31:58;101318.00;;;11.84;80.56
37852;BME280;23691;52.486;4.650;2023-11-21T04:34:23;101324.00;;;11.86;80.66
37852;BME280;23691;52.486;4.650;2023-11-21T04:36:49;101326.41;;;11.89;80.52
37852;BME280;23691;52.486;4.650;2023-11-21T04:39:14;101327.25;;;11.90;80.59
37852;BME280;23691;52.486;4.650;2023-11-21T04:41:40;101335.28;;;11.90;80.69
37852;BME280;23691;52.486;4.650;2023-11-21T04:44:05;101336.47;;;11.87;80.73
37852;BME280;23691;52.486;4.650;2023-11-21T04:46:31;101338.47;;;11.93;80.65
37852;BME280;23691;52.486;4.650;2023-11-21T04:48:57;101333.66;;;11.97;80.68
37852;BME280;23691;52.486;4.650;2023-11-21T04:51:23;101336.16;;;11.98;80.75
37852;BME280;23691;52.486;4.650;2023-11-21T04:53:48;101343.22;;;11.99;80.63
37852;BME280;23691;52.486;4.650;2023-11-21T04:56:13;101343.22;;;11.99;80.81
37852;BME280;23691;52.486;4.650;2023-11-21T04:58:39;101349.41;;;12.00;80.85
37852;BME280;23691;52.486;4.650;2023-11-21T05:01:07;101351.94;;;12.01;80.92
37852;BME280;23691;52.486;4.650;2023-11-21T05:03:32;101350.09;;;12.02;80.85
37852;BME280;23691;52.486;4.650;2023-11-21T05:05:59;101360.66;;;12.03;81.07
37852;BME280;23691;52.486;4.650;2023-11-21T05:08:24;101352.44;;;12.05;81.05
37852;BME280;23691;52.486;4.650;2023-11-21T05:10:51;101357.66;;;12.07;81.14
37852;BME280;23691;52.486;4.650;2023-11-21T05:13:17;101372.72;;;12.08;81.11
37852;BME280;23691;52.486;4.650;2023-11-21T05:15:43;101368.06;;;12.10;81.19
37852;BME280;23691;52.486;4.650;2023-11-21T05:18:11;101364.53;;;12.09;81.10
37852;BME280;23691;52.486;4.650;2023-11-21T05:20:36;101362.53;;;12.11;81.31
37852;BME280;23691;52.486;4.650;2023-11-21T05:23:02;101380.31;;;12.12;81.41
37852;BME280;23691;52.486;4.650;2023-11-21T05:25:27;101382.28;;;12.10;81.41
37852;BME280;23691;52.486;4.650;2023-11-21T05:27:53;101382.28;;;12.10;81.52
37852;BME280;23691;52.486;4.650;2023-11-21T05:30:21;101384.16;;;12.10;81.44
37852;BME280;23691;52.486;4.650;2023-11-21T05:32:49;101387.84;;;12.09;81.61
37852;BME280;23691;52.486;4.650;2023-11-21T05:35:14;101392.34;;;12.08;81.70
37852;BME280;23691;52.486;4.650;2023-11-21T05:37:44;101392.34;;;12.08;81.61
37852;BME280;23691;52.486;4.650;2023-11-21T05:40:10;101398.03;;;12.05;81.67
37852;BME280;23691;52.486;4.650;2023-11-21T05:42:35;101411.44;;;12.05;81.56
37852;BME280;23691;52.486;4.650;2023-11-21T05:45:03;101411.63;;;12.03;81.56
37852;BME280;23691;52.486;4.650;2023-11-21T05:47:36;101409.78;;;12.04;81.52
37852;BME280;23691;52.486;4.650;2023-11-21T05:50:01;101421.34;;;12.05;81.54
37852;BME280;23691;52.486;4.650;2023-11-21T05:52:27;101420.66;;;12.02;81.41
37852;BME280;23691;52.486;4.650;2023-11-21T05:54:55;101423.34;;;12.02;81.41
37852;BME280;23691;52.486;4.650;2023-11-21T05:57:20;101431.38;;;12.02;81.46
37852;BME280;23691;52.486;4.650;2023-11-21T05:59:48;101436.75;;;12.02;81.45
37852;BME280;23691;52.486;4.650;2023-11-21T06:02:22;101437.91;;;12.00;81.56
37852;BME280;23691;52.486;4.650;2023-11-21T06:04:48;101442.44;;;11.99;81.47
37852;BME280;23691;52.486;4.650;2023-11-21T06:07:17;101441.75;;;11.97;81.64
37852;BME280;23691;52.486;4.650;2023-11-21T06:09:42;101449.94;;;11.96;81.67
37852;BME280;23691;52.486;4.650;2023-11-21T06:12:11;101457.31;;;11.94;81.74
37852;BME280;23691;52.486;4.650;2023-11-21T06:14:36;101468.88;;;11.94;81.68
37852;BME280;23691;52.486;4.650;2023-11-21T06:17:06;101467.03;;;11.95;81.64
37852;BME280;23691;52.486;4.650;2023-11-21T06:19:32;101482.97;;;11.96;81.72
37852;BME280;23691;52.486;4.650;2023-11-21T06:21:58;101481.28;;;11.95;81.39
37852;BME280;23691;52.486;4.650;2023-11-21T06:24:23;101474.25;;;11.94;81.63
37852;BME280;23691;52.486;4.650;2023-11-21T06:26:48;101469.22;;;11.91;81.57
37852;BME280;23691;52.486;4.650;2023-11-21T06:29:14;101470.50;;;11.87;81.81
37852;BME280;23691;52.486;4.650;2023-11-21T06:31:40;101468.78;;;11.86;81.89
37852;BME280;23691;52.486;4.650;2023-11-21T06:34:06;101474.16;;;11.86;81.90
37852;BME280;23691;52.486;4.650;2023-11-21T06:36:34;101491.25;;;11.85;81.91
37852;BME280;23691;52.486;4.650;2023-11-21T06:38:59;101485.19;;;11.83;81.96
37852;BME280;23691;52.486;4.650;2023-11-21T06:41:25;101501.97;;;11.85;81.98
37852;BME280;23691;52.486;4.650;2023-11-21T06:43:50;101501.13;;;11.85;81.92
37852;BME280;23691;52.486;4.650;2023-11-21T06:46:15;101502.81;;;11.86;81.87
37852;BME280;23691;52.486;4.650;2023-11-21T06:48:42;101508.16;;;11.86;81.92
37852;BME280;23691;52.486;4.650;2023-11-21T06:51:12;101504.53;;;11.87;81.93
37852;BME280;23691;52.486;4.650;2023-11-21T06:53:38;101507.22;;;11.87;82.10
37852;BME280;23691;52.486;4.650;2023-11-21T06:56:03;101514.25;;;11.88;82.01
37852;BME280;23691;52.486;4.650;2023-11-21T06:58:29;101524.13;;;11.87;82.03
37852;BME280;23691;52.486;4.650;2023-11-21T07:00:54;101530.19;;;11.89;82.06
37852;BME280;23691;52.486;4.650;2023-11-21T07:03:19;101523.69;;;11.92;82.07
37852;BME280;23691;52.486;4.650;2023-11-21T07:05:45;101530.88;;;11.91;82.01
37852;BME280;23691;52.486;4.650;2023-11-21T07:08:12;101534.22;;;11.93;82.09
37852;BME280;23691;52.486;4.650;2023-11-21T07:10:41;101543.13;;;11.94;81.92
37852;BME280;23691;52.486;4.650;2023-11-21T07:13:06;101545.81;;;11.94;82.08
37852;BME280;23691;52.486;4.650;2023-11-21T07:15:32;101556.38;;;11.95;82.10
37852;BME280;23691;52.486;4.650;2023-11-21T07:17:57;101561.72;;;11.95;82.05
37852;BME280;23691;52.486;4.650;2023-11-21T07:20:23;101567.09;;;11.95;82.17
37852;BME280;23691;52.486;4.650;2023-11-21T07:22:51;101570.31;;;11.99;82.04
37852;BME280;23691;52.486;4.650;2023-11-21T07:25:17;101579.03;;;12.01;82.03
37852;BME280;23691;52.486;4.650;2023-11-21T07:27:44;101584.72;;;11.98;82.00
37852;BME280;23691;52.486;4.650;2023-11-21T07:30:11;101586.41;;;11.99;82.09
37852;BME280;23691;52.486;4.650;2023-11-21T07:32:38;101591.91;;;11.97;82.40
37852;BME280;23691;52.486;4.650;2023-11-21T07:35:04;101590.91;;;11.98;82.29
37852;BME280;23691;52.486;4.650;2023-11-21T07:37:30;101588.22;;;11.98;82.28
37852;BME280;23691;52.486;4.650;2023-11-21T07:39:55;101589.63;;;12.02;82.08
37852;BME280;23691;52.486;4.650;2023-11-21T07:42:23;101594.97;;;12.02;82.05
37852;BME280;23691;52.486;4.650;2023-11-21T07:44:52;101595.53;;;12.06;82.01
37852;BME280;23691;52.486;4.650;2023-11-21T07:47:17;101598.88;;;12.08;82.02
37852;BME280;23691;52.486;4.650;2023-11-21T07:49:43;101610.16;;;12.12;82.08
37852;BME280;23691;52.486;4.650;2023-11-21T07:52:13;101615.88;;;12.17;81.94
37852;BME280;23691;52.486;4.650;2023-11-21T07:54:41;101615.88;;;12.17;81.88
37852;BME280;23691;52.486;4.650;2023-11-21T07:57:08;101623.09;;;12.16;81.98
37852;BME280;23691;52.486;4.650;2023-11-21T07:59:34;101607.16;;;12.15;81.90
37852;BME280;23691;52.486;4.650;2023-11-21T08:01:59;101622.09;;;12.17;81.84
37852;BME280;23691;52.486;4.650;2023-11-21T08:04:25;101624.63;;;12.19;81.89
37852;BME280;23691;52.486;4.650;2023-11-21T08:06:50;101632.34;;;12.22;81.84
37852;BME280;23691;52.486;4.650;2023-11-21T08:09:16;101639.38;;;12.23;81.69
37852;BME280;23691;52.486;4.650;2023-11-21T08:11:42;101656.50;;;12.22;81.63
37852;BME280;23691;52.486;4.650;2023-11-21T08:14:07;101653.50;;;12.25;81.45
37852;BME280;23691;52.486;4.650;2023-11-21T08:16:33;101653.34;;;12.27;81.39
37852;BME280;23691;52.486;4.650;2023-11-21T08:18:58;101662.09;;;12.29;81.29
37852;BME280;23691;52.486;4.650;2023-11-21T08:21:26;101658.72;;;12.27;81.54
37852;BME280;23691;52.486;4.650;2023-11-21T08:23:54;101663.94;;;12.28;81.36
37852;BME280;23691;52.486;4.650;2023-11-21T08:26:21;101666.44;;;12.30;81.18
37852;BME280;23691;52.486;4.650;2023-11-21T08:28:49;101661.91;;;12.30;81.17
37852;BME280;23691;52.486;4.650;2023-11-21T08:31:17;101665.28;;;12.32;81.07
37852;BME280;23691;52.486;4.650;2023-11-21T08:33:42;101666.66;;;12.36;80.94
37852;BME280;23691;52.486;4.650;2023-11-21T08:36:08;101665.38;;;12.40;80.77
37852;BME280;23691;52.486;4.650;2023-11-21T08:38:36;101666.03;;;12.42;80.63
37852;BME280;23691;52.486;4.650;2023-11-21T08:41:04;101675.59;;;12.45;80.52
37852;BME280;23691;52.486;4.650;2023-11-21T08:43:35;101681.19;;;12.52;80.26
37852;BME280;23691;52.486;4.650;2023-11-21T08:46:03;101677.03;;;12.57;80.21
37852;BME280;23691;52.486;4.650;2023-11-21T08:48:29;101679.91;;;12.56;80.05
37852;BME280;23691;52.486;4.650;2023-11-21T08:50:54;101687.50;;;12.60;79.76
37852;BME280;23691;52.486;4.650;2023-11-21T08:53:23;101684.81;;;12.60;79.65
37852;BME280;23691;52.486;4.650;2023-11-21T08:55:48;101690.00;;;12.62;79.57
37852;BME280;23691;52.486;4.650;2023-11-21T08:58:15;101694.53;;;12.61;79.46
37852;BME280;23691;52.486;4.650;2023-11-21T09:00:41;101698.59;;;12.65;79.37
37852;BME280;23691;52.486;4.650;2023-11-21T09:03:06;101706.66;;;12.65;79.21
37852;BME280;23691;52.486;4.650;2023-11-21T09:05:34;101722.13;;;12.72;78.96
37852;BME280;23691;52.486;4.650;2023-11-21T09:07:59;101720.13;;;12.74;78.74
37852;BME280;23691;52.486;4.650;2023-11-21T09:10:24;101715.75;;;12.73;78.71
37852;BME280;23691;52.486;4.650;2023-11-21T09:12:50;101709.69;;;12.71;78.78
37852;BME280;23691;52.486;4.650;2023-11-21T09:15:17;101728.50;;;12.71;78.68
37852;BME280;23691;52.486;4.650;2023-11-21T09:17:42;101734.19;;;12.67;78.47
37852;BME280;23691;52.486;4.650;2023-11-21T09:20:08;101733.31;;;12.67;78.56
37852;BME280;23691;52.486;4.650;2023-11-21T09:22:35;101739.38;;;12.69;78.53
37852;BME280;23691;52.486;4.650;2023-11-21T09:25:00;101751.72;;;12.80;78.17
37852;BME280;23691;52.486;4.650;2023-11-21T09:27:25;101753.44;;;12.89;77.83
37852;BME280;23691;52.486;4.650;2023-11-21T09:29:51;101759.38;;;12.93;77.56
37852;BME280;23691;52.486;4.650;2023-11-21T09:32:17;101770.41;;;12.89;77.68
37852;BME280;23691;52.486;4.650;2023-11-21T09:34:43;101775.25;;;12.86;77.43
37852;BME280;23691;52.486;4.650;2023-11-21T09:37:09;101790.34;;;12.87;77.30
37852;BME280;23691;52.486;4.650;2023-11-21T09:39:40;101803.97;;;12.85;77.11
37852;BME280;23691;52.486;4.650;2023-11-21T09:42:13;101812.03;;;12.85;76.94
37852;BME280;23691;52.486;4.650;2023-11-21T09:47:15;101820.41;;;12.82;76.79
37852;BME280;23691;52.486;4.650;2023-11-21T09:49:42;101826.44;;;12.84;76.73
37852;BME280;23691;52.486;4.650;2023-11-21T09:52:08;101823.81;;;12.93;76.45
37852;BME280;23691;52.486;4.650;2023-11-21T09:54:34;101842.16;;;12.97;76.20
37852;BME280;23691;52.486;4.650;2023-11-21T09:57:00;101843.38;;;13.03;76.02
37852;BME280;23691;52.486;4.650;2023-11-21T09:59:25;101843.75;;;13.08;75.84
37852;BME280;23691;52.486;4.650;2023-11-21T10:01:55;101845.78;;;13.14;75.88
37852;BME280;23691;52.486;4.650;2023-11-21T10:04:23;101848.56;;;13.22;75.55
37852;BME280;23691;52.486;4.650;2023-11-21T10:06:48;101839.75;;;13.30;75.63
37852;BME280;23691;52.486;4.650;2023-11-21T10:09:15;101841.94;;;13.35;75.37
37852;BME280;23691;52.486;4.650;2023-11-21T10:11:41;101854.59;;;13.42;75.39
37852;BME280;23691;52.486;4.650;2023-11-21T10:14:10;101853.44;;;13.45;75.26
37852;BME280;23691;52.486;4.650;2023-11-21T10:16:37;101864.19;;;13.45;74.76
37852;BME280;23691;52.486;4.650;2023-11-21T10:19:04;101859.13;;;13.42;74.89
37852;BME280;23691;52.486;4.650;2023-11-21T10:21:34;101872.41;;;13.43;74.65
37852;BME280;23691;52.486;4.650;2023-11-21T10:23:59;101882.31;;;13.43;74.69
37852;BME280;23691;52.486;4.650;2023-11-21T10:26:25;101885.53;;;13.46;74.47
37852;BME280;23691;52.486;4.650;2023-11-21T10:28:55;101882.53;;;13.49;74.36
37852;BME280;23691;52.486;4.650;2023-11-21T10:31:21;101881.38;;;13.52;73.92
37852;BME280;23691;52.486;4.650;2023-11-21T10:33:49;101889.06;;;13.47;74.02
37852;BME280;23691;52.486;4.650;2023-11-21T10:36:19;101887.38;;;13.46;73.84
37852;BME280;23691;52.486;4.650;2023-11-21T10:38:49;101895.59;;;13.44;73.63
37852;BME280;23691;52.486;4.650;2023-11-21T10:41:18;101887.00;;;13.41;73.80
37852;BME280;23691;52.486;4.650;2023-11-21T10:43:43;101895.91;;;13.41;73.99
37852;BME280;23691;52.486;4.650;2023-11-21T10:46:09;101901.00;;;13.44;73.29
37852;BME280;23691;52.486;4.650;2023-11-21T10:48:34;101892.38;;;13.41;73.10
37852;BME280;23691;52.486;4.650;2023-11-21T10:51:01;101898.59;;;13.41;73.15
37852;BME280;23691;52.486;4.650;2023-11-21T10:53:31;101897.59;;;13.42;73.05
37852;BME280;23691;52.486;4.650;2023-11-21T10:56:04;101891.06;;;13.45;73.19
37852;BME280;23691;52.486;4.650;2023-11-21T10:58:33;101904.03;;;13.49;72.96
37852;BME280;23691;52.486;4.650;2023-11-21T11:01:00;101903.03;;;13.50;72.74
37852;BME280;23691;52.486;4.650;2023-11-21T11:03:26;101916.16;;;13.53;72.58
37852;BME280;23691;52.486;4.650;2023-11-21T11:05:53;101908.09;;;13.53;72.30
37852;BME280;23691;52.486;4.650;2023-11-21T11:08:20;101908.41;;;13.50;72.10
37852;BME280;23691;52.486;4.650;2023-11-21T11:10:51;101916.31;;;13.52;72.17
37852;BME280;23691;52.486;4.650;2023-11-21T11:13:31;101907.59;;;13.58;71.93
37852;BME280;23691;52.486;4.650;2023-11-21T11:16:00;101907.59;;;13.58;71.78
37852;BME280;23691;52.486;4.650;2023-11-21T11:18:27;101907.81;;;13.65;71.55
37852;BME280;23691;52.486;4.650;2023-11-21T11:20:53;101907.72;;;13.74;71.36
37852;BME280;23691;52.486;4.650;2023-11-21T11:28:20;101911.69;;;13.88;70.85
37852;BME280;23691;52.486;4.650;2023-11-21T11:33:57;101926.91;;;14.06;70.46
37852;BME280;23691;52.486;4.650;2023-11-21T11:36:26;101926.78;;;14.15;70.27
37852;BME280;23691;52.486;4.650;2023-11-21T11:38:53;101921.41;;;14.24;69.91
37852;BME280;23691;52.486;4.650;2023-11-21T11:41:27;101931.50;;;14.30;69.56
37852;BME280;23691;52.486;4.650;2023-11-21T11:43:54;101932.19;;;14.32;69.36
37852;BME280;23691;52.486;4.650;2023-11-21T11:49:11;101925.13;;;14.23;69.43
37852;BME280;23691;52.486;4.650;2023-11-21T11:54:37;101933.75;;;14.00;69.21
37852;BME280;23691;52.486;4.650;2023-11-21T11:57:03;101932.41;;;13.96;69.07
37852;BME280;23691;52.486;4.650;2023-11-21T11:59:36;101938.25;;;13.91;69.26
37852;BME280;23691;52.486;4.650;2023-11-21T12:02:17;101945.63;;;13.89;69.58
37852;BME280;23691;52.486;4.650;2023-11-21T12:04:46;101948.47;;;13.88;69.33
37852;BME280;23691;52.486;4.650;2023-11-21T12:07:11;101952.66;;;13.82;69.47
37852;BME280;23691;52.486;4.650;2023-11-21T12:09:38;101953.13;;;13.78;69.54
37852;BME280;23691;52.486;4.650;2023-11-21T12:12:04;101959.50;;;13.77;69.64
37852;BME280;23691;52.486;4.650;2023-11-21T12:14:32;101962.91;;;13.79;69.75
37852;BME280;23691;52.486;4.650;2023-11-21T12:17:00;101971.63;;;13.81;69.52
37852;BME280;23691;52.486;4.650;2023-11-21T12:19:25;101969.81;;;13.81;69.61
37852;BME280;23691;52.486;4.650;2023-11-21T12:21:51;101975.69;;;13.85;69.71
37852;BME280;23691;52.486;4.650;2023-11-21T12:24:17;101982.13;;;13.92;69.67
37852;BME280;23691;52.486;4.650;2023-11-21T12:26:42;101984.66;;;13.93;69.55
37852;BME280;23691;52.486;4.650;2023-11-21T12:29:09;101981.13;;;13.93;69.01
37852;BME280;23691;52.486;4.650;2023-11-21T12:31:35;101991.38;;;13.89;68.89
37852;BME280;23691;52.486;4.650;2023-11-21T12:34:01;101991.38;;;13.89;68.80
37852;BME280;23691;52.486;4.650;2023-11-21T12:36:26;101994.53;;;13.85;68.70
37852;BME280;23691;52.486;4.650;2023-11-21T12:38:54;101997.69;;;13.80;68.31
37852;BME280;23691;52.486;4.650;2023-11-21T12:41:19;102007.22;;;13.74;68.13
37852;BME280;23691;52.486;4.650;2023-11-21T12:43:46;101992.34;;;13.62;67.99
37852;BME280;23691;52.486;4.650;2023-11-21T12:46:12;102005.19;;;13.50;67.95
37852;BME280;23691;52.486;4.650;2023-11-21T12:48:42;102009.97;;;13.39;67.94
37852;BME280;23691;52.486;4.650;2023-11-21T12:51:12;102011.88;;;13.28;67.66
37852;BME280;23691;52.486;4.650;2023-11-21T12:53:41;102021.91;;;13.26;67.74
37852;BME280;23691;52.486;4.650;2023-11-21T12:58:34;102030.69;;;13.28;67.90
37852;BME280;23691;52.486;4.650;2023-11-21T13:01:00;102026.16;;;13.29;67.90
37852;BME280;23691;52.486;4.650;2023-11-21T13:03:28;102028.84;;;13.29;68.03
37852;BME280;23691;52.486;4.650;2023-11-21T13:05:55;102033.09;;;13.31;68.25